Draffin, Kentucky
Current Conditions -  °F | °C
As of 5:55 PM on Wednesday 26 Nov 2014 (Local Time) from KPBX Reporting Station
Broken Clouds Broken Clouds  
Wind Chill: 39°   Ceiling: 5000
Heat Index: 42°   Visibility: 10mi
Dew Point: 30°   Wind: 5mph
Humidity: 62%   Direction: 340°NNW
Pressure: 29.98"   Gusts: NA
Location:  37.3089°N, 82.3418°W
Report Text: KPBX 262255Z AUTO 34004KT 10SM BKN050 06/M01 A2998 RMK AO2 T00551012
Loading
Personal Weather Stations






























Interactive Weather Map New forecast layout! Learn more

10-Day Weather Forecast

Advertisements
Track Severe Weather on mobile